Hlavní strana
METAR-TAF:

METAR-TAF

Letiště :

Indianapolis, Indiana, Spojené státy americké

zeměpisná šířka: 39-49-30N, zeměpisná délka: 086-17-45W, výška: 250 m

Aktuální stav počasí

Zpráva byla vytvořena před 17 minutami, v 15:53 UTC
Západní vítr 18 kt s nárazy do 27 kt
Teplota 11°C
Vlhkost vzduchu 50%
Tlak 1021 hPa
Viditelnost: 16.1 km
Jasno

METAR: KEYE 301553Z AUTO 28018G27KT 10SM CLR 11/01 A3014 RMK AO2 PK WND 29028/1534 SLP207 T01060006

Čas: 12:10 (16:10 UTC)


TAF: chybějící

Stav a předpovědi počasí z více než 4 000 letišť (zprávy METAR a TAF).

Červené a žluté tečky na mapě představují dostupné meteorologické stanice.

Když kurzor umístíte na tečku, zobrazí se název stanice.

Pak kliknutím zobrazíte stav a předpověď počasí.

Chcete-li změnit mapu, kliknutím na zelené tlačítko se znaménkem +mapu přiblížíte, kliknutím na zelené tlačítko se znaménkem – mapu oddálíte a kliknutím na zelené šipky přejdete na sousední mapy.


METAR-TAF: